Time;durP1;ratioP1;P1;durP2;ratioP2;P2;SDS_P1;SDS_P2;PMS_P1;PMS_P2;Temp;Humidity;BMP_temperature;BMP_pressure;BME280_temperature;BME280_humidity;BME280_pressure;Samples;Min_cycle;Max_cycle;Signal;HPM_P1;HPM_P2
2023/04/12 00:02:26;;;;;;;;;14.67;8.00;;;;;;;;120184;1190;24900;-66
2023/04/12 00:04:56;;;;;;;;;10.00;8.00;;;;;;;;119998;1183;25582;-66
2023/04/12 00:07:25;;;;;;;;;10.00;9.50;;;;;;;;120118;1190;25676;-66
2023/04/12 00:09:53;;;;;;;;;8.33;6.33;;;;;;;;119923;1190;25219;-66
2023/04/12 00:12:21;;;;;;;;;9.00;6.00;;;;;;;;119923;1190;24792;-66
2023/04/12 00:14:49;;;;;;;;;13.33;8.00;;;;;;;;119906;1190;25321;-66
2023/04/12 00:17:18;;;;;;;;;10.25;7.25;;;;;;;;119885;1190;25688;-66
2023/04/12 00:19:48;;;;;;;;;12.00;8.50;;;;;;;;119908;1190;25167;-66
2023/04/12 00:22:16;;;;;;;;;8.33;7.00;;;;;;;;119925;1182;24837;-66
2023/04/12 00:24:46;;;;;;;;;6.75;5.00;;;;;;;;119933;1190;25577;-67
2023/04/12 00:27:14;;;;;;;;;8.00;7.00;;;;;;;;119913;1190;24876;-66
2023/04/12 00:29:42;;;;;;;;;10.50;8.00;;;;;;;;119948;1186;25050;-66
2023/04/12 00:32:10;;;;;;;;;10.25;8.25;;;;;;;;119902;1190;25428;-66
2023/04/12 00:34:39;;;;;;;;;7.33;6.00;;;;;;;;119960;1182;25698;-65
2023/04/12 00:37:07;;;;;;;;;9.00;6.00;;;;;;;;119898;1190;25762;-66
2023/04/12 00:39:35;;;;;;;;;8.00;6.67;;;;;;;;119903;1190;25528;-66
2023/04/12 00:42:04;;;;;;;;;12.00;8.00;;;;;;;;119926;1190;25156;-65
2023/04/12 00:44:32;;;;;;;;;8.33;5.67;;;;;;;;119942;1190;25665;-66
2023/04/12 00:47:04;;;;;;;;;10.25;8.75;;;;;;;;119935;1190;25199;-66
2023/04/12 00:49:33;;;;;;;;;9.00;7.33;;;;;;;;119940;1190;24959;-65
2023/04/12 00:52:07;;;;;;;;;6.33;6.00;;;;;;;;119911;1190;25331;-66
2023/04/12 00:54:36;;;;;;;;;8.00;6.75;;;;;;;;119901;1190;25715;-66
2023/04/12 00:57:04;;;;;;;;;8.33;6.00;;;;;;;;119958;1190;25334;-66
2023/04/12 00:59:32;;;;;;;;;8.75;7.75;;;;;;;;120009;1186;24917;-66
2023/04/12 01:02:00;;;;;;;;;10.00;8.00;;;;;;;;120218;1190;24904;-66
2023/04/12 01:04:29;;;;;;;;;9.67;7.33;;;;;;;;119987;1190;24951;-65
2023/04/12 01:07:26;;;;;;;;;9.50;6.00;;;;;;;;120181;1189;25618;-66
2023/04/12 01:10:01;;;;;;;;;8.75;7.00;;;;;;;;119996;1181;25366;-66
2023/04/12 01:12:32;;;;;;;;;10.00;7.00;;;;;;;;120185;1189;25174;-66
2023/04/12 01:15:11;;;;;;;;;7.00;6.33;;;;;;;;120026;1190;25592;-66
2023/04/12 01:17:46;;;;;;;;;5.50;5.50;;;;;;;;119925;1182;25308;-66
2023/04/12 01:20:18;;;;;;;;;4.75;4.25;;;;;;;;119934;1182;24793;-66
2023/04/12 01:23:15;;;;;;;;;7.00;7.00;;;;;;;;119935;1182;25615;-66
2023/04/12 01:25:47;;;;;;;;;8.00;5.75;;;;;;;;119931;1190;24859;-66
2023/04/12 01:28:20;;;;;;;;;10.50;5.75;;;;;;;;119944;1190;25700;-66
2023/04/12 01:30:53;;;;;;;;;14.00;6.25;;;;;;;;119927;1182;24947;-65
2023/04/12 01:33:22;;;;;;;;;6.00;5.50;;;;;;;;119914;1182;25403;-65
2023/04/12 01:35:51;;;;;;;;;8.00;7.50;;;;;;;;119936;1190;25756;-66
2023/04/12 01:38:20;;;;;;;;;7.75;6.00;;;;;;;;119898;1190;25057;-65
2023/04/12 01:40:48;;;;;;;;;8.50;8.00;;;;;;;;119927;1189;25514;-66
2023/04/12 01:43:17;;;;;;;;;5.00;2.00;;;;;;;;119915;1190;25303;-66
2023/04/12 01:45:45;;;;;;;;;6.25;4.50;;;;;;;;119921;1186;25199;-66
2023/04/12 01:48:13;;;;;;;;;6.50;6.00;;;;;;;;119913;1190;25093;-65
2023/04/12 01:51:05;;;;;;;;;6.67;6.67;;;;;;;;119893;1190;25463;-65
2023/04/12 01:53:50;;;;;;;;;5.33;4.33;;;;;;;;119913;1190;25409;-66
2023/04/12 01:56:21;;;;;;;;;5.75;5.25;;;;;;;;119920;1182;25564;-66
2023/04/12 01:58:52;;;;;;;;;9.00;7.33;;;;;;;;119908;1190;25355;-65
2023/04/12 02:01:21;;;;;;;;;5.50;5.50;;;;;;;;119924;1190;25592;-66
2023/04/12 02:03:51;;;;;;;;;9.67;6.33;;;;;;;;119925;1190;25652;-66
2023/04/12 02:06:19;;;;;;;;;6.67;6.00;;;;;;;;119934;1190;25484;-66
2023/04/12 02:08:48;;;;;;;;;7.00;5.33;;;;;;;;119939;1182;25128;-66
2023/04/12 02:11:16;;;;;;;;;7.67;5.67;;;;;;;;119948;1190;25042;-66
2023/04/12 02:13:44;;;;;;;;;9.67;5.67;;;;;;;;119940;1190;24760;-66
2023/04/12 02:16:13;;;;;;;;;7.67;6.00;;;;;;;;119911;1190;25574;-66
2023/04/12 02:18:41;;;;;;;;;7.25;5.50;;;;;;;;119954;1190;24690;-66
2023/04/12 02:21:09;;;;;;;;;2.00;2.00;;;;;;;;119896;1190;25302;-66
2023/04/12 02:23:38;;;;;;;;;5.75;5.75;;;;;;;;119930;1182;25043;-66
2023/04/12 02:26:06;;;;;;;;;7.00;5.00;;;;;;;;119916;1190;25212;-65
2023/04/12 02:28:36;;;;;;;;;8.00;6.00;;;;;;;;119892;1190;25958;-65
2023/04/12 02:31:07;;;;;;;;;8.67;5.00;;;;;;;;119960;1182;25482;-65
2023/04/12 02:33:35;;;;;;;;;11.00;5.67;;;;;;;;119909;1187;25517;-66
2023/04/12 02:36:09;;;;;;;;;10.75;5.25;;;;;;;;119917;1182;25629;-65
2023/04/12 02:38:37;;;;;;;;;7.25;5.75;;;;;;;;119908;1182;25449;-65
2023/04/12 02:41:05;;;;;;;;;7.25;4.75;;;;;;;;119937;1190;25517;-65
2023/04/12 02:43:34;;;;;;;;;5.00;4.67;;;;;;;;119949;1190;24943;-65
2023/04/12 02:46:02;;;;;;;;;7.25;5.00;;;;;;;;119891;1190;25820;-65
2023/04/12 02:48:30;;;;;;;;;6.00;4.00;;;;;;;;119914;1190;25512;-65
2023/04/12 02:50:58;;;;;;;;;7.50;5.25;;;;;;;;119912;1190;24920;-66
2023/04/12 02:53:27;;;;;;;;;5.33;5.33;;;;;;;;119936;1181;25215;-67
2023/04/12 02:55:56;;;;;;;;;8.00;5.00;;;;;;;;119913;1182;25416;-67
2023/04/12 02:58:24;;;;;;;;;4.00;4.00;;;;;;;;119910;1182;24761;-66
2023/04/12 03:00:52;;;;;;;;;6.75;4.00;;;;;;;;119915;1190;25526;-66
2023/04/12 03:03:20;;;;;;;;;8.33;6.67;;;;;;;;119923;1190;25115;-67
2023/04/12 03:05:49;;;;;;;;;3.67;3.67;;;;;;;;119945;1190;25266;-66
2023/04/12 03:08:18;;;;;;;;;5.67;5.67;;;;;;;;119919;1190;25870;-65
2023/04/12 03:10:46;;;;;;;;;6.00;3.25;;;;;;;;119909;1186;24891;-66
2023/04/12 03:13:14;;;;;;;;;6.33;5.00;;;;;;;;119899;1190;24755;-66
2023/04/12 03:15:43;;;;;;;;;5.00;3.00;;;;;;;;119911;1190;24950;-66
2023/04/12 03:18:11;;;;;;;;;6.33;3.33;;;;;;;;119912;1190;24957;-66
2023/04/12 03:20:43;;;;;;;;;6.50;4.00;;;;;;;;119928;1190;24804;-66
2023/04/12 03:23:14;;;;;;;;;3.75;3.00;;;;;;;;119923;1190;25261;-66
2023/04/12 03:25:43;;;;;;;;;4.50;4.50;;;;;;;;119884;1190;25211;-66
2023/04/12 03:28:11;;;;;;;;;4.00;4.00;;;;;;;;119931;1190;25006;-66
2023/04/12 03:30:40;;;;;;;;;4.50;2.25;;;;;;;;119918;1190;24767;-66
2023/04/12 03:33:08;;;;;;;;;4.00;4.00;;;;;;;;119934;1181;25673;-66
2023/04/12 03:35:36;;;;;;;;;5.50;4.75;;;;;;;;119907;1190;25220;-66
2023/04/12 03:38:04;;;;;;;;;6.50;5.50;;;;;;;;119906;1190;25524;-66
2023/04/12 03:40:33;;;;;;;;;4.67;4.67;;;;;;;;119910;1190;26365;-65
2023/04/12 03:43:01;;;;;;;;;6.25;6.00;;;;;;;;119916;1182;24858;-65
2023/04/12 03:45:29;;;;;;;;;3.50;3.00;;;;;;;;119926;1190;25458;-66
2023/04/12 03:47:57;;;;;;;;;6.75;4.50;;;;;;;;119888;1190;25539;-65
2023/04/12 03:50:28;;;;;;;;;7.50;5.25;;;;;;;;119867;1190;25060;-65
2023/04/12 03:52:56;;;;;;;;;4.75;4.50;;;;;;;;119904;1190;25445;-64
2023/04/12 03:55:24;;;;;;;;;4.75;3.25;;;;;;;;119917;1190;24695;-65
2023/04/12 03:57:53;;;;;;;;;4.00;4.00;;;;;;;;119893;1190;24980;-65
2023/04/12 04:00:21;;;;;;;;;7.67;5.00;;;;;;;;119902;1182;24805;-65
2023/04/12 04:02:49;;;;;;;;;3.00;3.00;;;;;;;;119964;1182;25045;-65
2023/04/12 04:05:17;;;;;;;;;6.25;4.25;;;;;;;;119909;1190;24928;-65
2023/04/12 04:07:46;;;;;;;;;3.50;2.25;;;;;;;;119899;1190;24967;-65
2023/04/12 04:10:14;;;;;;;;;4.25;4.25;;;;;;;;119942;1181;25702;-67
2023/04/12 04:12:42;;;;;;;;;4.67;4.33;;;;;;;;119901;1190;24906;-65
2023/04/12 04:15:11;;;;;;;;;6.00;3.00;;;;;;;;119944;1190;26021;-64
2023/04/12 04:17:39;;;;;;;;;4.75;3.75;;;;;;;;119883;1190;25607;-65
2023/04/12 04:20:11;;;;;;;;;4.00;2.50;;;;;;;;119946;1182;25445;-65
2023/04/12 04:22:41;;;;;;;;;4.25;3.75;;;;;;;;119899;1190;24690;-65
2023/04/12 04:25:09;;;;;;;;;2.00;2.00;;;;;;;;119871;1182;24850;-66
2023/04/12 04:27:37;;;;;;;;;3.00;3.00;;;;;;;;119916;1190;24889;-65
2023/04/12 04:30:06;;;;;;;;;4.50;3.75;;;;;;;;119917;1190;24809;-65
2023/04/12 04:32:34;;;;;;;;;6.50;5.00;;;;;;;;119939;1181;25280;-65
2023/04/12 04:35:02;;;;;;;;;3.50;3.50;;;;;;;;119908;1182;25166;-65
2023/04/12 04:37:34;;;;;;;;;2.75;2.00;;;;;;;;119934;1190;25798;-66
2023/04/12 04:40:08;;;;;;;;;5.67;4.00;;;;;;;;119714;1190;24754;-65
2023/04/12 04:42:38;;;;;;;;;5.75;5.00;;;;;;;;119869;1190;25238;-65
2023/04/12 04:45:12;;;;;;;;;2.25;2.25;;;;;;;;119963;1182;25791;-65
2023/04/12 04:47:40;;;;;;;;;5.00;3.00;;;;;;;;119935;1190;25238;-65
2023/04/12 04:50:09;;;;;;;;;5.00;3.00;;;;;;;;119914;1190;25068;-65
2023/04/12 04:52:38;;;;;;;;;5.00;5.00;;;;;;;;119917;1181;25300;-65
2023/04/12 04:55:07;;;;;;;;;7.00;4.50;;;;;;;;119898;1190;24951;-65
2023/04/12 04:57:38;;;;;;;;;3.67;3.67;;;;;;;;119953;1186;24923;-65
2023/04/12 05:00:10;;;;;;;;;4.33;4.00;;;;;;;;119947;1182;24970;-65
2023/04/12 05:02:42;;;;;;;;;3.00;3.00;;;;;;;;119904;1190;25257;-65
2023/04/12 05:05:12;;;;;;;;;5.00;3.50;;;;;;;;119877;1190;25104;-65
2023/04/12 05:07:42;;;;;;;;;4.00;3.67;;;;;;;;119985;1182;24788;-65
2023/04/12 05:10:10;;;;;;;;;4.00;4.00;;;;;;;;119723;1183;25412;-65
2023/04/12 05:12:38;;;;;;;;;4.50;3.25;;;;;;;;119877;1190;24974;-65
2023/04/12 05:15:07;;;;;;;;;4.00;4.00;;;;;;;;119915;1190;25313;-65
2023/04/12 05:17:39;;;;;;;;;5.00;3.00;;;;;;;;119940;1182;24703;-65
2023/04/12 05:20:09;;;;;;;;;3.00;3.00;;;;;;;;119909;1190;25460;-65
2023/04/12 05:22:38;;;;;;;;;5.00;2.75;;;;;;;;119926;1190;25387;-65
2023/04/12 05:25:06;;;;;;;;;3.75;3.75;;;;;;;;119924;1190;25050;-65
2023/04/12 05:27:34;;;;;;;;;4.00;3.00;;;;;;;;119906;1182;25685;-66
2023/04/12 05:30:03;;;;;;;;;8.00;6.00;;;;;;;;119907;1190;25632;-66
2023/04/12 05:32:31;;;;;;;;;4.50;4.50;;;;;;;;119938;1181;25584;-66
2023/04/12 05:34:59;;;;;;;;;4.00;4.00;;;;;;;;119910;1190;25072;-65
2023/04/12 05:37:27;;;;;;;;;3.00;3.00;;;;;;;;119894;1190;25376;-65
2023/04/12 05:39:56;;;;;;;;;2.00;2.00;;;;;;;;119935;1190;24922;-66
2023/04/12 05:42:24;;;;;;;;;3.33;3.33;;;;;;;;119930;1182;25639;-66
2023/04/12 05:44:54;;;;;;;;;2.33;2.33;;;;;;;;119915;1190;24724;-66
2023/04/12 05:47:22;;;;;;;;;3.25;3.25;;;;;;;;119927;1190;25615;-65
2023/04/12 05:49:51;;;;;;;;;4.00;4.00;;;;;;;;119951;1187;25237;-66
2023/04/12 05:52:19;;;;;;;;;2.67;2.67;;;;;;;;120098;1190;25452;-66
2023/04/12 05:54:47;;;;;;;;;3.00;2.50;;;;;;;;120117;1190;24679;-66
2023/04/12 05:57:16;;;;;;;;;2.67;2.67;;;;;;;;120102;1190;25273;-66
2023/04/12 05:59:45;;;;;;;;;5.25;4.00;;;;;;;;120113;1189;24822;-65
2023/04/12 06:02:13;;;;;;;;;6.33;5.00;;;;;;;;120098;1186;25152;-64
2023/04/12 06:04:41;;;;;;;;;3.75;2.00;;;;;;;;119943;1182;25592;-66
2023/04/12 06:07:20;;;;;;;;;3.00;2.50;;;;;;;;119953;1189;25079;-69
2023/04/12 06:09:48;;;;;;;;;2.00;2.00;;;;;;;;120124;1187;25490;-71
2023/04/12 06:12:17;;;;;;;;;3.67;3.67;;;;;;;;120109;1176;25645;-69
2023/04/12 06:14:45;;;;;;;;;4.00;4.00;;;;;;;;120100;1189;25238;-71
2023/04/12 06:17:13;;;;;;;;;4.67;4.00;;;;;;;;120099;1178;25434;-71
2023/04/12 06:19:41;;;;;;;;;7.00;5.00;;;;;;;;120071;1190;24956;-68
2023/04/12 06:22:10;;;;;;;;;5.00;4.50;;;;;;;;120100;1190;25437;-68
2023/04/12 06:24:38;;;;;;;;;5.00;5.00;;;;;;;;120112;1189;25062;-68
2023/04/12 06:27:06;;;;;;;;;4.75;4.75;;;;;;;;120101;1190;25147;-72
2023/04/12 06:29:34;;;;;;;;;4.50;3.00;;;;;;;;120121;1182;25518;-74
2023/04/12 06:32:03;;;;;;;;;10.00;6.67;;;;;;;;120056;1182;25263;-74
2023/04/12 06:34:31;;;;;;;;;3.00;3.00;;;;;;;;120227;1189;24938;-72
2023/04/12 06:37:01;;;;;;;;;7.00;5.33;;;;;;;;120132;1184;25677;-69
2023/04/12 06:39:30;;;;;;;;;9.00;4.50;;;;;;;;119971;1190;25096;-74
2023/04/12 06:41:58;;;;;;;;;10.75;5.00;;;;;;;;120029;1190;25412;-76
2023/04/12 06:44:26;;;;;;;;;10.00;7.50;;;;;;;;120120;1190;25649;-74
2023/04/12 06:46:55;;;;;;;;;7.00;6.00;;;;;;;;120299;1176;25333;-72
2023/04/12 06:49:23;;;;;;;;;8.67;7.00;;;;;;;;120244;1189;25279;-70
2023/04/12 06:51:51;;;;;;;;;7.75;7.00;;;;;;;;120078;1182;25149;-77
2023/04/12 06:54:19;;;;;;;;;6.75;6.25;;;;;;;;120037;1186;25664;-75
2023/04/12 06:56:47;;;;;;;;;11.67;7.33;;;;;;;;120109;1186;24829;-80
2023/04/12 06:59:16;;;;;;;;;8.00;6.00;;;;;;;;120159;1189;25517;-74
2023/04/12 07:01:44;;;;;;;;;8.50;7.00;;;;;;;;120157;1190;24821;-68
2023/04/12 07:04:13;;;;;;;;;11.00;6.00;;;;;;;;120054;1187;24808;-72
2023/04/12 07:06:41;;;;;;;;;9.75;6.50;;;;;;;;120091;1188;25260;-67
2023/04/12 07:09:09;;;;;;;;;8.00;6.00;;;;;;;;119867;1179;25694;-70
2023/04/12 07:11:38;;;;;;;;;2.50;2.50;;;;;;;;119913;1179;24971;-65
2023/04/12 07:14:06;;;;;;;;;8.00;6.00;;;;;;;;120054;1189;24820;-68
2023/04/12 07:16:34;;;;;;;;;6.50;6.00;;;;;;;;120189;1188;25443;-67
2023/04/12 07:19:03;;;;;;;;;8.00;6.00;;;;;;;;120098;1188;26457;-64
2023/04/12 07:21:31;;;;;;;;;5.67;5.67;;;;;;;;120206;1189;24885;-68
2023/04/12 07:24:00;;;;;;;;;7.00;5.00;;;;;;;;120223;1180;24896;-65
2023/04/12 07:26:30;;;;;;;;;6.75;5.25;;;;;;;;120093;1182;25250;-66
2023/04/12 07:28:58;;;;;;;;;11.50;6.75;;;;;;;;120085;1190;24916;-66
2023/04/12 07:31:30;;;;;;;;;7.25;5.75;;;;;;;;119928;1182;24715;-66
2023/04/12 07:33:58;;;;;;;;;9.67;7.67;;;;;;;;119954;1182;25297;-66
2023/04/12 07:36:26;;;;;;;;;7.25;6.00;;;;;;;;120110;1190;25100;-66
2023/04/12 07:38:55;;;;;;;;;5.00;5.00;;;;;;;;119959;1190;25527;-66
2023/04/12 07:41:24;;;;;;;;;5.75;5.75;;;;;;;;120095;1190;25249;-65
2023/04/12 07:43:52;;;;;;;;;3.25;2.50;;;;;;;;120104;1189;24894;-65
2023/04/12 07:46:20;;;;;;;;;7.67;3.00;;;;;;;;120103;1182;25608;-66
2023/04/12 07:48:50;;;;;;;;;9.00;5.00;;;;;;;;119945;1190;25676;-66
2023/04/12 07:51:18;;;;;;;;;5.33;5.00;;;;;;;;119959;1183;24906;-66
2023/04/12 07:53:50;;;;;;;;;3.33;2.00;;;;;;;;120113;1189;24709;-65
2023/04/12 07:56:18;;;;;;;;;5.25;5.25;;;;;;;;119958;1189;25648;-65
2023/04/12 07:58:47;;;;;;;;;8.00;5.00;;;;;;;;119950;1182;25557;-66
2023/04/12 08:01:15;;;;;;;;;7.50;5.00;;;;;;;;120112;1189;25299;-65
2023/04/12 08:03:43;;;;;;;;;7.00;5.00;;;;;;;;120107;1182;24728;-65
2023/04/12 08:06:12;;;;;;;;;3.33;3.33;;;;;;;;119976;1183;25307;-65
2023/04/12 08:08:40;;;;;;;;;6.67;6.33;;;;;;;;120105;1189;25615;-66
2023/04/12 08:11:09;;;;;;;;;4.33;3.67;;;;;;;;120111;1189;25393;-65
2023/04/12 08:13:37;;;;;;;;;5.75;4.25;;;;;;;;119935;1190;25971;-66
2023/04/12 08:16:07;;;;;;;;;5.50;4.75;;;;;;;;120116;1189;24971;-66
2023/04/12 08:18:35;;;;;;;;;6.00;5.00;;;;;;;;120118;1189;24950;-66
2023/04/12 08:21:03;;;;;;;;;4.50;4.00;;;;;;;;120103;1189;24703;-66
2023/04/12 08:23:32;;;;;;;;;3.75;3.75;;;;;;;;119946;1183;25353;-66
2023/04/12 08:26:02;;;;;;;;;4.75;3.50;;;;;;;;120122;1189;25237;-66
2023/04/12 08:28:31;;;;;;;;;6.25;3.00;;;;;;;;120117;1189;25404;-65
2023/04/12 08:30:59;;;;;;;;;6.50;4.50;;;;;;;;119963;1190;25057;-66
2023/04/12 08:33:28;;;;;;;;;6.50;3.75;;;;;;;;119930;1184;25586;-66
2023/04/12 08:35:57;;;;;;;;;5.50;4.25;;;;;;;;119911;1190;25396;-65
2023/04/12 08:38:25;;;;;;;;;6.75;4.00;;;;;;;;120094;1189;25153;-66
2023/04/12 08:41:12;;;;;;;;;5.25;4.00;;;;;;;;120118;1189;24988;-67
2023/04/12 08:43:44;;;;;;;;;7.50;6.00;;;;;;;;119936;1190;25043;-66
2023/04/12 08:46:14;;;;;;;;;6.67;6.67;;;;;;;;119932;1189;25450;-66
2023/04/12 08:48:48;;;;;;;;;7.25;7.25;;;;;;;;119942;1183;24736;-67
2023/04/12 08:51:20;;;;;;;;;5.00;5.00;;;;;;;;119933;1190;24789;-66
2023/04/12 08:53:49;;;;;;;;;6.67;5.00;;;;;;;;120124;1189;25053;-67
2023/04/12 08:56:17;;;;;;;;;7.00;5.50;;;;;;;;119937;1190;25222;-66
2023/04/12 08:58:49;;;;;;;;;7.00;4.75;;;;;;;;119937;1182;25239;-66
2023/04/12 09:01:19;;;;;;;;;6.00;5.00;;;;;;;;119969;1190;25475;-67
2023/04/12 09:03:48;;;;;;;;;6.33;6.00;;;;;;;;119945;1190;25238;-67
2023/04/12 09:06:16;;;;;;;;;5.75;4.25;;;;;;;;120114;1182;25438;-67
2023/04/12 09:08:55;;;;;;;;;5.50;3.75;;;;;;;;120116;1182;25093;-67
2023/04/12 09:11:25;;;;;;;;;5.75;5.00;;;;;;;;119936;1190;25525;-67
2023/04/12 09:13:55;;;;;;;;;5.50;5.00;;;;;;;;119958;1182;25329;-66
2023/04/12 09:16:44;;;;;;;;;4.33;3.33;;;;;;;;119949;1189;25344;-67
2023/04/12 09:19:12;;;;;;;;;3.25;3.25;;;;;;;;120130;1176;25016;-66
2023/04/12 09:21:54;;;;;;;;;6.50;6.00;;;;;;;;119950;1190;24960;-66
2023/04/12 09:28:27;;;;;;;;;2.00;2.00;;;;;;;;116214;1196;23475;-64
2023/04/12 09:30:57;;;;;;;;;7.50;6.00;;;;;;;;117102;1184;24938;-65
2023/04/12 09:33:37;;;;;;;;;5.00;5.00;;;;;;;;117359;1184;25443;-66
2023/04/12 09:36:13;;;;;;;;;5.25;5.25;;;;;;;;117330;1193;25476;-67
2023/04/12 09:38:59;;;;;;;;;6.00;5.00;;;;;;;;117147;1192;25200;-66
2023/04/12 09:41:30;;;;;;;;;4.00;3.50;;;;;;;;117465;1192;25073;-66
2023/04/12 09:44:00;;;;;;;;;5.00;5.00;;;;;;;;117499;1193;24954;-66
2023/04/12 09:46:28;;;;;;;;;5.00;5.00;;;;;;;;117485;1193;25075;-66
2023/04/12 09:48:59;;;;;;;;;5.50;4.00;;;;;;;;117857;1180;25472;-66
2023/04/12 09:51:32;;;;;;;;;5.67;4.67;;;;;;;;117822;1186;25726;-66
2023/04/12 09:54:03;;;;;;;;;6.75;4.25;;;;;;;;117859;1179;25639;-66
2023/04/12 09:56:36;;;;;;;;;3.33;3.33;;;;;;;;117837;1193;25207;-66
2023/04/12 09:59:06;;;;;;;;;5.67;5.00;;;;;;;;117783;1180;24860;-66
2023/04/12 10:01:37;;;;;;;;;10.00;5.50;;;;;;;;117452;1181;24865;-69
2023/04/12 10:04:07;;;;;;;;;5.50;5.50;;;;;;;;117486;1180;25629;-67
2023/04/12 10:06:36;;;;;;;;;5.25;5.00;;;;;;;;117820;1192;25260;-66
2023/04/12 10:09:05;;;;;;;;;8.33;4.33;;;;;;;;117831;1191;25118;-66
2023/04/12 10:11:34;;;;;;;;;6.33;5.67;;;;;;;;117526;1193;26201;-66
2023/04/12 10:14:05;;;;;;;;;5.00;5.00;;;;;;;;117506;1183;25635;-66
2023/04/12 10:16:33;;;;;;;;;8.00;5.00;;;;;;;;117489;1193;25557;-66
2023/04/12 10:19:03;;;;;;;;;6.00;4.50;;;;;;;;117512;1193;24913;-65
2023/04/12 10:21:31;;;;;;;;;5.75;4.50;;;;;;;;117834;1193;25320;-65
2023/04/12 10:24:00;;;;;;;;;7.50;5.75;;;;;;;;117792;1179;25754;-65
2023/04/12 10:26:28;;;;;;;;;6.50;4.00;;;;;;;;117850;1192;25258;-65
2023/04/12 10:29:24;;;;;;;;;7.00;4.50;;;;;;;;117533;1193;25319;-65
2023/04/12 10:31:56;;;;;;;;;3.00;3.00;;;;;;;;117796;1179;25323;-67
2023/04/12 10:34:30;;;;;;;;;5.75;3.75;;;;;;;;117824;1179;25271;-65
2023/04/12 10:37:00;;;;;;;;;5.25;4.50;;;;;;;;117797;1180;24837;-66
2023/04/12 10:39:39;;;;;;;;;5.25;5.25;;;;;;;;117795;1180;25143;-65
2023/04/12 10:42:22;;;;;;;;;5.33;5.33;;;;;;;;117792;1180;24964;-65
2023/04/12 10:44:55;;;;;;;;;5.25;5.00;;;;;;;;117462;1184;25023;-66
2023/04/12 10:47:49;;;;;;;;;6.00;6.00;;;;;;;;117484;1182;25451;-65
2023/04/12 10:50:29;;;;;;;;;5.00;4.67;;;;;;;;117800;1179;25679;-65
2023/04/12 10:53:14;;;;;;;;;9.67;5.00;;;;;;;;117476;1193;24681;-65
2023/04/12 10:55:44;;;;;;;;;5.50;4.75;;;;;;;;117832;1181;25131;-65
2023/04/12 10:58:46;;;;;;;;;5.50;5.50;;;;;;;;117928;1191;24797;-65
2023/04/12 11:01:17;;;;;;;;;9.33;6.00;;;;;;;;117887;1191;24873;-65
2023/04/12 11:04:13;;;;;;;;;4.33;4.00;;;;;;;;117780;1180;24811;-65
2023/04/12 11:06:45;;;;;;;;;6.00;5.00;;;;;;;;117899;1183;24838;-65
2023/04/12 11:09:29;;;;;;;;;4.75;4.75;;;;;;;;117837;1177;25504;-66
2023/04/12 11:12:10;;;;;;;;;6.00;6.00;;;;;;;;117860;1177;25722;-65
2023/04/12 11:14:46;;;;;;;;;4.50;3.50;;;;;;;;117926;1178;25637;-65
2023/04/12 11:17:17;;;;;;;;;4.33;4.00;;;;;;;;117909;1179;24990;-66
2023/04/12 11:19:54;;;;;;;;;6.67;6.67;;;;;;;;117912;1179;25495;-64
2023/04/12 11:22:28;;;;;;;;;8.00;7.00;;;;;;;;117930;1177;25175;-64
2023/04/12 11:24:58;;;;;;;;;7.00;5.33;;;;;;;;117903;1186;25312;-65
2023/04/12 11:27:28;;;;;;;;;7.00;5.00;;;;;;;;117815;1181;25458;-65
2023/04/12 11:29:58;;;;;;;;;7.33;5.00;;;;;;;;117929;1180;24726;-65
2023/04/12 11:32:30;;;;;;;;;5.75;5.75;;;;;;;;117866;1177;25254;-66
2023/04/12 11:34:58;;;;;;;;;7.00;5.50;;;;;;;;117918;1177;25136;-66
2023/04/12 11:37:30;;;;;;;;;5.33;5.00;;;;;;;;117953;1177;25132;-65
2023/04/12 11:39:58;;;;;;;;;4.00;4.00;;;;;;;;117954;1177;24817;-65
2023/04/12 11:42:30;;;;;;;;;6.00;3.33;;;;;;;;117919;1180;24896;-65
2023/04/12 11:44:58;;;;;;;;;7.00;4.00;;;;;;;;117839;1189;24845;-65
2023/04/12 11:47:42;;;;;;;;;2.50;2.50;;;;;;;;117865;1191;26417;-65
2023/04/12 11:50:11;;;;;;;;;6.50;5.50;;;;;;;;117831;1179;25189;-65
2023/04/12 11:52:40;;;;;;;;;3.33;2.00;;;;;;;;117854;1179;25310;-65
2023/04/12 11:55:09;;;;;;;;;4.50;4.00;;;;;;;;117860;1179;26389;-65
2023/04/12 11:57:38;;;;;;;;;4.00;3.67;;;;;;;;117870;1191;25089;-66
2023/04/12 12:00:07;;;;;;;;;4.00;4.00;;;;;;;;117944;1181;25699;-65
2023/04/12 12:02:36;;;;;;;;;4.75;4.50;;;;;;;;117886;1183;25225;-65
2023/04/12 12:05:13;;;;;;;;;6.67;5.67;;;;;;;;117862;1180;25361;-66
2023/04/12 12:07:42;;;;;;;;;6.00;5.00;;;;;;;;117912;1191;24803;-64
2023/04/12 12:10:10;;;;;;;;;4.67;4.67;;;;;;;;117913;1191;24818;-64
2023/04/12 12:12:48;;;;;;;;;5.00;4.00;;;;;;;;117925;1183;24802;-65
2023/04/12 12:15:16;;;;;;;;;5.75;5.75;;;;;;;;117913;1178;24943;-65
2023/04/12 12:17:45;;;;;;;;;5.50;5.50;;;;;;;;117910;1191;25430;-65
2023/04/12 12:20:20;;;;;;;;;4.50;4.50;;;;;;;;117914;1191;24825;-65
2023/04/12 12:22:49;;;;;;;;;7.00;6.00;;;;;;;;117928;1187;25488;-65
2023/04/12 12:25:18;;;;;;;;;8.75;6.00;;;;;;;;117917;1177;25006;-66
2023/04/12 12:27:50;;;;;;;;;3.00;3.00;;;;;;;;117847;1180;24973;-66
2023/04/12 12:30:19;;;;;;;;;7.25;5.75;;;;;;;;117840;1177;25021;-72
2023/04/12 12:32:49;;;;;;;;;4.00;4.00;;;;;;;;117945;1177;25224;-73
2023/04/12 12:35:18;;;;;;;;;4.50;4.50;;;;;;;;117862;1191;25103;-73
2023/04/12 12:37:52;;;;;;;;;3.67;3.33;;;;;;;;117942;1187;25053;-66
2023/04/12 12:40:31;;;;;;;;;5.25;3.75;;;;;;;;117967;1177;26347;-65
2023/04/12 12:43:00;;;;;;;;;5.50;5.50;;;;;;;;117860;1184;24805;-65
2023/04/12 12:45:30;;;;;;;;;2.75;1.00;;;;;;;;117927;1179;24888;-65
2023/04/12 12:48:01;;;;;;;;;3.00;3.00;;;;;;;;117915;1177;24979;-65
2023/04/12 12:50:32;;;;;;;;;5.00;5.00;;;;;;;;117858;1191;25245;-65
2023/04/12 12:53:02;;;;;;;;;4.50;4.00;;;;;;;;117910;1181;25611;-65
2023/04/12 12:55:31;;;;;;;;;4.25;4.25;;;;;;;;117930;1180;24964;-65
2023/04/12 12:57:59;;;;;;;;;4.00;4.00;;;;;;;;117903;1178;25398;-65
2023/04/12 13:00:31;;;;;;;;;3.00;2.67;;;;;;;;117915;1187;25201;-65
2023/04/12 13:02:59;;;;;;;;;5.50;5.00;;;;;;;;117931;1191;25718;-65
2023/04/12 13:05:28;;;;;;;;;6.00;3.67;;;;;;;;117929;1181;25075;-65
2023/04/12 13:07:57;;;;;;;;;5.00;3.25;;;;;;;;117918;1181;24932;-65
2023/04/12 13:10:26;;;;;;;;;5.67;5.00;;;;;;;;117941;1177;25209;-66
2023/04/12 13:12:54;;;;;;;;;5.75;4.50;;;;;;;;117887;1191;24848;-65
2023/04/12 13:15:23;;;;;;;;;4.00;4.00;;;;;;;;117917;1177;25150;-65
2023/04/12 13:17:52;;;;;;;;;6.50;4.50;;;;;;;;117945;1177;24673;-65
2023/04/12 13:20:21;;;;;;;;;7.50;5.75;;;;;;;;117915;1191;26410;-65
2023/04/12 13:22:53;;;;;;;;;4.50;4.50;;;;;;;;117884;1180;24929;-66
2023/04/12 13:25:21;;;;;;;;;3.50;3.50;;;;;;;;117901;1177;25718;-65
2023/04/12 13:27:51;;;;;;;;;5.50;5.00;;;;;;;;117896;1181;25642;-65
2023/04/12 13:30:19;;;;;;;;;4.00;4.00;;;;;;;;117944;1177;25242;-65
2023/04/12 13:32:47;;;;;;;;;9.00;6.00;;;;;;;;117895;1186;24745;-65
2023/04/12 13:35:17;;;;;;;;;8.00;7.00;;;;;;;;117867;1180;25023;-66
2023/04/12 13:37:45;;;;;;;;;6.00;6.00;;;;;;;;117926;1177;25650;-65
2023/04/12 13:40:14;;;;;;;;;5.33;4.33;;;;;;;;117906;1179;26486;-65
2023/04/12 13:42:43;;;;;;;;;6.00;5.33;;;;;;;;117919;1187;25627;-65
2023/04/12 13:45:11;;;;;;;;;6.00;4.75;;;;;;;;117908;1191;25671;-65
2023/04/12 13:47:40;;;;;;;;;7.00;7.00;;;;;;;;117935;1179;24867;-65
2023/04/12 13:50:09;;;;;;;;;9.25;6.00;;;;;;;;117877;1177;24875;-65
2023/04/12 13:52:37;;;;;;;;;5.33;5.33;;;;;;;;117877;1186;25456;-65
2023/04/12 13:55:07;;;;;;;;;4.67;3.67;;;;;;;;117969;1177;25673;-64
2023/04/12 13:57:35;;;;;;;;;5.75;5.00;;;;;;;;117889;1191;25108;-65
2023/04/12 14:00:04;;;;;;;;;5.00;5.00;;;;;;;;117924;1177;25091;-65
2023/04/12 14:02:33;;;;;;;;;7.33;4.00;;;;;;;;117868;1177;24764;-65
2023/04/12 14:05:02;;;;;;;;;5.00;5.00;;;;;;;;117927;1181;25409;-65
2023/04/12 14:07:31;;;;;;;;;5.00;4.00;;;;;;;;117872;1184;25319;-65
2023/04/12 14:09:59;;;;;;;;;5.33;3.00;;;;;;;;117907;1177;24818;-66
2023/04/12 14:12:28;;;;;;;;;4.00;4.00;;;;;;;;117920;1181;25598;-66
2023/04/12 14:14:56;;;;;;;;;6.33;5.67;;;;;;;;117902;1191;25670;-66
2023/04/12 14:17:30;;;;;;;;;4.33;4.33;;;;;;;;117848;1191;25219;-65
2023/04/12 14:20:00;;;;;;;;;7.00;6.67;;;;;;;;117916;1191;25212;-64
2023/04/12 14:22:29;;;;;;;;;6.00;5.00;;;;;;;;117924;1187;25272;-65
2023/04/12 14:24:57;;;;;;;;;6.00;4.67;;;;;;;;117932;1190;24823;-64
2023/04/12 14:27:26;;;;;;;;;4.00;3.75;;;;;;;;117898;1177;25594;-64
2023/04/12 14:29:55;;;;;;;;;4.67;4.67;;;;;;;;117938;1183;25597;-65
2023/04/12 14:32:23;;;;;;;;;4.25;4.25;;;;;;;;117903;1191;25376;-65
2023/04/12 14:34:52;;;;;;;;;6.00;4.67;;;;;;;;117856;1178;25036;-65
2023/04/12 14:37:20;;;;;;;;;2.67;2.67;;;;;;;;117891;1191;25506;-66
2023/04/12 14:39:52;;;;;;;;;6.50;6.00;;;;;;;;117869;1181;25736;-65
2023/04/12 14:46:13;;;;;;;;;7.50;5.50;;;;;;;;118183;1178;25303;-63
2023/04/12 14:48:42;;;;;;;;;4.67;4.67;;;;;;;;117453;1182;24707;-62
2023/04/12 14:51:10;;;;;;;;;7.33;6.00;;;;;;;;117438;1183;24717;-63
2023/04/12 14:53:41;;;;;;;;;6.00;6.00;;;;;;;;117404;1188;25227;-63
2023/04/12 14:56:19;;;;;;;;;5.00;3.00;;;;;;;;117409;1180;25136;-66